Time;durP1;ratioP1;P1;durP2;ratioP2;P2;SDS_P1;SDS_P2;PMS_P1;PMS_P2;Temp;Humidity;BMP_temperature;BMP_pressure;BME280_temperature;BME280_humidity;BME280_pressure;Samples;Min_cycle;Max_cycle;Signal;HPM_P1;HPM_P2
2022/02/12 00:00:24;;;;;;;21.35;5.93;;;;;;;;;;5040950;28;20037;-45
2022/02/12 00:02:52;;;;;;;22.52;6.28;;;;;;;;;;5023033;28;20033;-45
2022/02/12 00:05:20;;;;;;;29.55;8.00;;;;;;;;;;5024682;28;20054;-47
2022/02/12 00:07:46;;;;;;;28.90;9.45;;;;;;;;;;5024332;28;20378;-47
2022/02/12 00:10:13;;;;;;;19.63;6.88;;;;;;;;;;5025081;28;20055;-45
2022/02/12 00:12:40;;;;;;;17.67;5.35;;;;;;;;;;5024115;28;20032;-46
2022/02/12 00:15:06;;;;;;;13.57;4.90;;;;;;;;;;5039776;28;20076;-45
2022/02/12 00:17:32;;;;;;;10.57;3.83;;;;;;;;;;5039194;28;20030;-45
2022/02/12 00:19:58;;;;;;;11.52;3.65;;;;;;;;;;5024338;28;20099;-45
2022/02/12 00:22:24;;;;;;;12.90;4.28;;;;;;;;;;5024057;28;20574;-46
2022/02/12 00:24:51;;;;;;;11.70;4.32;;;;;;;;;;5038130;28;20171;-46
2022/02/12 00:27:17;;;;;;;12.13;4.07;;;;;;;;;;5024145;28;20060;-45
2022/02/12 00:29:43;;;;;;;32.60;13.35;;;;;;;;;;5024811;28;20548;-47
2022/02/12 00:32:10;;;;;;;32.15;11.90;;;;;;;;;;5024147;28;20091;-45
2022/02/12 00:34:37;;;;;;;26.45;9.80;;;;;;;;;;5029783;28;20033;-45
2022/02/12 00:37:03;;;;;;;15.07;6.60;;;;;;;;;;5044116;28;20099;-44
2022/02/12 00:39:30;;;;;;;12.20;5.30;;;;;;;;;;5043645;28;20032;-46
2022/02/12 00:41:56;;;;;;;13.70;4.97;;;;;;;;;;5043114;28;20508;-45
2022/02/12 00:44:25;;;;;;;9.38;4.07;;;;;;;;;;5034570;28;20029;-49
2022/02/12 00:46:52;;;;;;;7.50;3.38;;;;;;;;;;5024546;28;20364;-46
2022/02/12 00:49:19;;;;;;;5.88;2.83;;;;;;;;;;5040807;28;20057;-45
2022/02/12 00:51:45;;;;;;;5.85;2.55;;;;;;;;;;5040112;28;20444;-45
2022/02/12 00:54:11;;;;;;;5.65;2.60;;;;;;;;;;5025150;28;20037;-46
2022/02/12 00:56:38;;;;;;;5.65;2.47;;;;;;;;;;5024509;28;20493;-45
2022/02/12 00:59:04;;;;;;;5.90;2.13;;;;;;;;;;5024358;28;20144;-46
2022/02/12 01:01:32;;;;;;;3.92;2.00;;;;;;;;;;5046821;28;20108;-45
2022/02/12 01:03:58;;;;;;;4.63;1.80;;;;;;;;;;5045319;28;20037;-45
2022/02/12 01:06:24;;;;;;;3.95;1.77;;;;;;;;;;5042350;28;20033;-45
2022/02/12 01:08:50;;;;;;;4.00;2.10;;;;;;;;;;5043315;28;20412;-47
2022/02/12 01:11:16;;;;;;;5.82;2.10;;;;;;;;;;5024620;28;20468;-46
2022/02/12 01:13:43;;;;;;;3.65;1.90;;;;;;;;;;5024153;28;20028;-46
2022/02/12 01:16:09;;;;;;;3.55;1.98;;;;;;;;;;5024437;28;20034;-45
2022/02/12 01:18:36;;;;;;;4.18;1.98;;;;;;;;;;5024060;28;20366;-46
2022/02/12 01:21:05;;;;;;;4.53;2.20;;;;;;;;;;5038880;28;20049;-45
2022/02/12 01:23:31;;;;;;;4.35;2.30;;;;;;;;;;5043940;28;20451;-45
2022/02/12 01:25:57;;;;;;;4.55;2.17;;;;;;;;;;5045767;28;20039;-48
2022/02/12 01:28:23;;;;;;;4.28;2.15;;;;;;;;;;5046506;28;20479;-45
2022/02/12 01:30:50;;;;;;;4.32;2.20;;;;;;;;;;5032859;28;20041;-44
2022/02/12 01:33:16;;;;;;;6.38;2.30;;;;;;;;;;5028181;28;20440;-45
2022/02/12 01:35:42;;;;;;;5.25;2.03;;;;;;;;;;5027385;28;20029;-45
2022/02/12 01:38:08;;;;;;;4.88;2.30;;;;;;;;;;5028153;28;20083;-45
2022/02/12 01:40:34;;;;;;;3.85;1.67;;;;;;;;;;5035983;28;20086;-45
2022/02/12 01:43:02;;;;;;;4.15;2.00;;;;;;;;;;5047956;28;20090;-45
2022/02/12 01:45:28;;;;;;;2.88;1.65;;;;;;;;;;5047800;28;20116;-45
2022/02/12 01:47:55;;;;;;;4.25;1.77;;;;;;;;;;5048500;28;20075;-44
2022/02/12 01:50:21;;;;;;;4.30;1.60;;;;;;;;;;5045853;28;20039;-45
2022/02/12 01:52:47;;;;;;;3.85;1.60;;;;;;;;;;5047560;28;20016;-45
2022/02/12 01:55:14;;;;;;;3.33;1.75;;;;;;;;;;5047704;28;20071;-45
2022/02/12 01:57:40;;;;;;;2.47;1.52;;;;;;;;;;5047507;28;20025;-45
2022/02/12 02:00:07;;;;;;;3.63;1.60;;;;;;;;;;5045392;28;20094;-46
2022/02/12 02:02:33;;;;;;;4.10;1.98;;;;;;;;;;5027423;28;20022;-44
2022/02/12 02:05:01;;;;;;;5.75;2.22;;;;;;;;;;5027546;28;20108;-46
2022/02/12 02:07:27;;;;;;;5.68;2.03;;;;;;;;;;5027563;28;20528;-44
2022/02/12 02:09:53;;;;;;;3.53;1.80;;;;;;;;;;5027228;28;20578;-45
2022/02/12 02:12:20;;;;;;;3.28;1.70;;;;;;;;;;5027149;28;20641;-45
2022/02/12 02:14:46;;;;;;;3.65;1.83;;;;;;;;;;5026895;28;20025;-45
2022/02/12 02:17:13;;;;;;;2.88;1.90;;;;;;;;;;5027189;28;20029;-44
2022/02/12 02:19:40;;;;;;;4.00;1.90;;;;;;;;;;5035595;28;20033;-45
2022/02/12 02:22:06;;;;;;;4.68;1.80;;;;;;;;;;5047152;28;20044;-45
2022/02/12 02:24:32;;;;;;;3.63;1.85;;;;;;;;;;5047080;28;20039;-44
2022/02/12 02:27:08;;;;;;;3.42;1.90;;;;;;;;;;5047632;28;20017;-45
2022/02/12 02:29:34;;;;;;;4.25;2.10;;;;;;;;;;5045683;28;20013;-45
2022/02/12 02:32:00;;;;;;;4.40;1.90;;;;;;;;;;5045813;28;20128;-46
2022/02/12 02:34:26;;;;;;;2.30;1.50;;;;;;;;;;5047537;28;20096;-45
2022/02/12 02:36:53;;;;;;;4.32;1.90;;;;;;;;;;5046355;28;20032;-46
2022/02/12 02:39:19;;;;;;;3.25;1.90;;;;;;;;;;5039526;28;20474;-45
2022/02/12 02:41:45;;;;;;;2.70;1.70;;;;;;;;;;5026881;28;20245;-46
2022/02/12 02:44:11;;;;;;;3.30;1.73;;;;;;;;;;5026677;28;20501;-45
2022/02/12 02:46:37;;;;;;;3.05;1.80;;;;;;;;;;5026442;28;20030;-45
2022/02/12 02:49:03;;;;;;;3.15;1.75;;;;;;;;;;5025953;28;20113;-46
2022/02/12 02:57:01;;;;;;;3.33;1.75;;;;;;;;;;5026396;28;20583;-46
2022/02/12 02:59:28;;;;;;;2.72;1.88;;;;;;;;;;5026470;28;20022;-45
2022/02/12 03:01:54;;;;;;;3.85;2.00;;;;;;;;;;5026983;28;20026;-45
2022/02/12 03:04:21;;;;;;;4.05;2.17;;;;;;;;;;5026401;28;20611;-46
2022/02/12 03:06:47;;;;;;;5.68;2.00;;;;;;;;;;5029594;28;20117;-46
2022/02/12 03:09:13;;;;;;;3.10;1.90;;;;;;;;;;5027022;28;20596;-45
2022/02/12 03:11:39;;;;;;;3.42;1.83;;;;;;;;;;5045981;28;20021;-44
2022/02/12 03:14:05;;;;;;;3.38;1.80;;;;;;;;;;5046164;28;20534;-45
2022/02/12 03:16:32;;;;;;;2.80;1.80;;;;;;;;;;5045887;28;20060;-45
2022/02/12 03:18:58;;;;;;;3.25;2.13;;;;;;;;;;5047015;28;20021;-46
2022/02/12 03:21:26;;;;;;;4.63;2.10;;;;;;;;;;5044964;28;20043;-46
2022/02/12 03:23:52;;;;;;;3.83;2.33;;;;;;;;;;5046279;28;20112;-46
2022/02/12 03:26:18;;;;;;;3.35;1.85;;;;;;;;;;5045948;28;20485;-45
2022/02/12 03:28:44;;;;;;;3.70;2.00;;;;;;;;;;5046007;28;20013;-45
2022/02/12 03:31:10;;;;;;;4.65;2.28;;;;;;;;;;5027309;28;20038;-45
2022/02/12 03:33:37;;;;;;;3.03;2.00;;;;;;;;;;5025869;28;20522;-45
2022/02/12 03:36:04;;;;;;;5.18;2.05;;;;;;;;;;5025615;28;20072;-45
2022/02/12 03:38:35;;;;;;;3.63;1.85;;;;;;;;;;5026364;28;20501;-44
2022/02/12 03:41:03;;;;;;;2.92;2.10;;;;;;;;;;5025589;28;20484;-46
2022/02/12 03:43:32;;;;;;;4.50;2.42;;;;;;;;;;5026247;28;20064;-46
2022/02/12 03:45:58;;;;;;;2.75;1.75;;;;;;;;;;5025911;28;20488;-45
2022/02/12 03:48:26;;;;;;;3.45;1.90;;;;;;;;;;5043779;28;20556;-45
2022/02/12 03:50:52;;;;;;;4.10;1.83;;;;;;;;;;5030096;28;20040;-45
2022/02/12 03:53:19;;;;;;;4.43;1.90;;;;;;;;;;5025540;28;20041;-45
2022/02/12 03:55:45;;;;;;;5.07;1.90;;;;;;;;;;5025576;28;20095;-45
2022/02/12 03:58:17;;;;;;;3.03;1.77;;;;;;;;;;5025586;28;20513;-45
2022/02/12 04:00:45;;;;;;;2.53;1.63;;;;;;;;;;5024571;28;20029;-46
2022/02/12 04:03:12;;;;;;;4.35;1.92;;;;;;;;;;5025388;28;20405;-45
2022/02/12 04:05:38;;;;;;;3.95;2.15;;;;;;;;;;5025321;28;20108;-46
2022/02/12 04:08:04;;;;;;;4.32;2.13;;;;;;;;;;5025305;28;20472;-44
2022/02/12 04:10:30;;;;;;;3.03;1.90;;;;;;;;;;5024749;28;20033;-45
2022/02/12 04:12:59;;;;;;;5.00;2.22;;;;;;;;;;5025747;28;20647;-45
2022/02/12 04:15:25;;;;;;;6.05;2.15;;;;;;;;;;5025106;28;20444;-46
2022/02/12 04:17:51;;;;;;;2.83;1.73;;;;;;;;;;5025081;28;20029;-44
2022/02/12 04:20:22;;;;;;;2.90;2.03;;;;;;;;;;5024856;28;20037;-45
2022/02/12 04:22:49;;;;;;;2.80;2.08;;;;;;;;;;5025227;28;20029;-46
2022/02/12 04:25:17;;;;;;;2.58;2.00;;;;;;;;;;5025176;28;20245;-45
2022/02/12 04:27:43;;;;;;;3.22;2.38;;;;;;;;;;5024598;28;20036;-47
2022/02/12 04:30:10;;;;;;;4.82;2.25;;;;;;;;;;5031157;28;20036;-46
2022/02/12 04:32:36;;;;;;;3.05;1.67;;;;;;;;;;5044673;28;20036;-47
2022/02/12 04:35:03;;;;;;;2.78;1.92;;;;;;;;;;5043512;28;20021;-45
2022/02/12 04:37:31;;;;;;;5.03;2.22;;;;;;;;;;5045062;28;20029;-49
2022/02/12 04:39:57;;;;;;;4.03;2.28;;;;;;;;;;5024822;28;20037;-46
2022/02/12 04:42:23;;;;;;;3.80;2.00;;;;;;;;;;5024651;28;20045;-46
2022/02/12 04:44:50;;;;;;;5.05;2.17;;;;;;;;;;5030051;28;20033;-48
2022/02/12 04:47:16;;;;;;;4.35;2.38;;;;;;;;;;5044528;28;20036;-45
2022/02/12 04:49:43;;;;;;;5.47;2.17;;;;;;;;;;5044333;28;20028;-46
2022/02/12 04:52:11;;;;;;;4.25;2.45;;;;;;;;;;5044739;28;20025;-45
2022/02/12 04:54:37;;;;;;;5.25;2.42;;;;;;;;;;5042661;28;20040;-45
2022/02/12 04:57:04;;;;;;;3.72;2.30;;;;;;;;;;5044444;28;20021;-45
2022/02/12 04:59:31;;;;;;;4.30;2.42;;;;;;;;;;5044421;28;20059;-45
2022/02/12 05:01:57;;;;;;;5.93;3.15;;;;;;;;;;5047580;28;20044;-45
2022/02/12 05:04:23;;;;;;;4.53;2.60;;;;;;;;;;5048403;28;20064;-46
2022/02/12 05:06:49;;;;;;;4.88;2.65;;;;;;;;;;5043556;28;20060;-45
2022/02/12 05:09:15;;;;;;;3.47;2.47;;;;;;;;;;5033767;28;20094;-45
2022/02/12 05:11:42;;;;;;;5.93;2.65;;;;;;;;;;5048068;28;20036;-46
2022/02/12 05:14:08;;;;;;;4.97;2.90;;;;;;;;;;5048253;28;20025;-46
2022/02/12 05:16:35;;;;;;;5.57;2.78;;;;;;;;;;5033072;28;20037;-46
2022/02/12 05:19:01;;;;;;;6.88;2.90;;;;;;;;;;5028409;28;20021;-45
2022/02/12 05:21:27;;;;;;;4.95;2.33;;;;;;;;;;5028774;28;20025;-45
2022/02/12 05:23:53;;;;;;;5.15;2.75;;;;;;;;;;5028242;28;20091;-46
2022/02/12 05:26:19;;;;;;;3.45;2.30;;;;;;;;;;5027820;28;20511;-45
2022/02/12 05:28:46;;;;;;;3.72;2.30;;;;;;;;;;5028001;28;20075;-46
2022/02/12 05:31:13;;;;;;;4.93;2.55;;;;;;;;;;5028115;28;20022;-45
2022/02/12 05:33:40;;;;;;;5.43;2.80;;;;;;;;;;5027843;28;20501;-45
2022/02/12 05:36:07;;;;;;;3.13;2.47;;;;;;;;;;5027827;28;20108;-46
2022/02/12 05:38:36;;;;;;;3.47;2.28;;;;;;;;;;5027945;28;20061;-47
2022/02/12 05:41:02;;;;;;;3.85;2.55;;;;;;;;;;5028142;28;20128;-45
2022/02/12 05:43:28;;;;;;;5.00;3.17;;;;;;;;;;5027862;28;20159;-46
2022/02/12 05:45:55;;;;;;;6.38;3.15;;;;;;;;;;5027370;28;20030;-45
2022/02/12 05:48:22;;;;;;;4.38;2.58;;;;;;;;;;5027567;28;20151;-45
2022/02/12 05:50:49;;;;;;;3.65;2.42;;;;;;;;;;5027744;28;20056;-46
2022/02/12 05:53:15;;;;;;;4.60;2.53;;;;;;;;;;5042141;28;20029;-45
2022/02/12 05:55:42;;;;;;;3.92;2.35;;;;;;;;;;5046058;28;20070;-46
2022/02/12 05:58:08;;;;;;;4.53;2.50;;;;;;;;;;5047437;28;20528;-45
2022/02/12 06:00:35;;;;;;;4.28;2.33;;;;;;;;;;5047112;28;20108;-45
2022/02/12 06:03:02;;;;;;;3.83;2.38;;;;;;;;;;5047464;28;20044;-45
2022/02/12 06:05:28;;;;;;;4.22;2.50;;;;;;;;;;5042947;28;20039;-46
2022/02/12 06:07:54;;;;;;;3.67;2.35;;;;;;;;;;5027522;28;20116;-44
2022/02/12 06:10:25;;;;;;;2.90;1.95;;;;;;;;;;5027354;28;20022;-45
2022/02/12 06:12:52;;;;;;;3.58;2.50;;;;;;;;;;5027278;28;20438;-45
2022/02/12 06:15:19;;;;;;;5.72;2.15;;;;;;;;;;5026781;28;20186;-45
2022/02/12 06:17:45;;;;;;;5.95;2.65;;;;;;;;;;5027255;28;20078;-47
2022/02/12 06:20:11;;;;;;;3.47;2.13;;;;;;;;;;5027005;28;20041;-45
2022/02/12 06:22:37;;;;;;;3.67;2.50;;;;;;;;;;5027118;28;20034;-46
2022/02/12 06:25:04;;;;;;;5.72;2.55;;;;;;;;;;5026794;28;20571;-48
2022/02/12 06:27:30;;;;;;;2.67;2.25;;;;;;;;;;5046635;28;20033;-45
2022/02/12 06:29:56;;;;;;;4.47;2.90;;;;;;;;;;5047456;28;20144;-46
2022/02/12 06:32:22;;;;;;;5.70;2.50;;;;;;;;;;5046623;28;20037;-48
2022/02/12 06:34:50;;;;;;;2.92;2.03;;;;;;;;;;5043106;28;20025;-45
2022/02/12 06:37:17;;;;;;;4.43;2.95;;;;;;;;;;5026842;28;20029;-47
2022/02/12 06:39:43;;;;;;;3.65;2.47;;;;;;;;;;5026720;28;20114;-46
2022/02/12 06:42:09;;;;;;;3.60;2.40;;;;;;;;;;5042123;28;20064;-45
2022/02/12 06:44:37;;;;;;;2.95;2.20;;;;;;;;;;5046615;28;20546;-47
2022/02/12 06:47:03;;;;;;;4.63;2.70;;;;;;;;;;5044945;28;20174;-46
2022/02/12 06:49:29;;;;;;;3.42;2.08;;;;;;;;;;5027390;28;20469;-45
2022/02/12 06:51:55;;;;;;;4.70;2.45;;;;;;;;;;5037540;28;20044;-46
2022/02/12 06:54:21;;;;;;;2.97;1.98;;;;;;;;;;5046448;28;20074;-47
2022/02/12 06:56:48;;;;;;;4.15;2.78;;;;;;;;;;5046328;28;20029;-47
2022/02/12 06:59:14;;;;;;;4.10;2.45;;;;;;;;;;5044106;28;20021;-45
2022/02/12 07:01:40;;;;;;;4.68;2.42;;;;;;;;;;5031213;28;20040;-46
2022/02/12 07:04:06;;;;;;;5.38;2.65;;;;;;;;;;5033435;28;20567;-46
2022/02/12 07:06:33;;;;;;;5.43;2.53;;;;;;;;;;5024911;28;20030;-46
2022/02/12 07:08:59;;;;;;;3.65;2.80;;;;;;;;;;5026925;28;20460;-48
2022/02/12 07:11:25;;;;;;;3.70;2.22;;;;;;;;;;5026377;28;20030;-46
2022/02/12 07:13:51;;;;;;;5.53;2.35;;;;;;;;;;5027176;28;20565;-46
2022/02/12 07:16:17;;;;;;;5.65;2.83;;;;;;;;;;5046055;28;20033;-46
2022/02/12 07:18:43;;;;;;;5.38;3.30;;;;;;;;;;5045884;28;20028;-46
2022/02/12 07:21:09;;;;;;;5.05;3.08;;;;;;;;;;5046036;28;20033;-46
2022/02/12 07:23:35;;;;;;;4.38;2.58;;;;;;;;;;5032099;28;20029;-48
2022/02/12 07:26:02;;;;;;;3.25;2.60;;;;;;;;;;5044950;28;20061;-46
2022/02/12 07:28:30;;;;;;;4.85;2.60;;;;;;;;;;5046001;28;20378;-46
2022/02/12 07:30:56;;;;;;;6.15;3.00;;;;;;;;;;5039198;28;20075;-46
2022/02/12 07:33:26;;;;;;;4.47;2.53;;;;;;;;;;5025592;28;20560;-45
2022/02/12 07:35:55;;;;;;;4.68;2.65;;;;;;;;;;5045015;28;20029;-46
2022/02/12 07:38:21;;;;;;;3.75;2.88;;;;;;;;;;5043659;28;20455;-45
2022/02/12 07:40:47;;;;;;;5.18;3.05;;;;;;;;;;5025716;28;20037;-46
2022/02/12 07:43:13;;;;;;;4.85;3.03;;;;;;;;;;5025233;28;20032;-46
2022/02/12 07:45:40;;;;;;;4.95;2.97;;;;;;;;;;5025257;28;20512;-46
2022/02/12 07:48:07;;;;;;;4.70;2.90;;;;;;;;;;5036843;28;20025;-46
2022/02/12 07:50:35;;;;;;;4.93;2.70;;;;;;;;;;5025404;28;20497;-46
2022/02/12 07:53:01;;;;;;;5.38;3.42;;;;;;;;;;5042098;28;20033;-45
2022/02/12 07:55:30;;;;;;;8.65;3.47;;;;;;;;;;5025642;28;20474;-45
2022/02/12 07:57:56;;;;;;;8.50;4.43;;;;;;;;;;5025892;28;20024;-46
2022/02/12 08:00:22;;;;;;;7.43;4.30;;;;;;;;;;5023613;28;20044;-49
2022/02/12 08:02:49;;;;;;;8.98;4.78;;;;;;;;;;5025368;28;20030;-45
2022/02/12 08:05:15;;;;;;;11.55;4.75;;;;;;;;;;5033858;28;20037;-45
2022/02/12 08:07:41;;;;;;;8.93;5.35;;;;;;;;;;5033357;28;20021;-46
2022/02/12 08:12:56;;;;;;;11.00;5.50;;;;;;;;;;5036591;28;20040;-46
2022/02/12 08:15:22;;;;;;;9.88;5.63;;;;;;;;;;5046158;28;20064;-47
2022/02/12 08:17:48;;;;;;;12.52;6.53;;;;;;;;;;5046532;28;20066;-45
2022/02/12 08:20:15;;;;;;;14.18;7.07;;;;;;;;;;5046587;28;20500;-46
2022/02/12 08:22:41;;;;;;;12.65;6.65;;;;;;;;;;5040337;28;20059;-46
2022/02/12 08:25:07;;;;;;;13.93;6.68;;;;;;;;;;5027019;28;20124;-48
2022/02/12 08:27:34;;;;;;;13.90;6.90;;;;;;;;;;5036787;28;20030;-45
2022/02/12 08:30:00;;;;;;;11.65;6.35;;;;;;;;;;5033154;28;20049;-45
2022/02/12 08:32:27;;;;;;;9.60;5.50;;;;;;;;;;5035699;28;20411;-46
2022/02/12 08:34:53;;;;;;;8.98;5.13;;;;;;;;;;5028794;28;20033;-46
2022/02/12 08:37:19;;;;;;;8.35;5.10;;;;;;;;;;5025953;28;20061;-46
2022/02/12 08:39:46;;;;;;;9.20;4.80;;;;;;;;;;5027188;28;20045;-48
2022/02/12 08:42:12;;;;;;;7.90;4.10;;;;;;;;;;5025682;28;20404;-46
2022/02/12 08:44:38;;;;;;;5.68;3.78;;;;;;;;;;5036908;28;20046;-46
2022/02/12 08:47:04;;;;;;;6.70;4.18;;;;;;;;;;5024267;28;20033;-49
2022/02/12 08:49:30;;;;;;;6.55;3.80;;;;;;;;;;5036738;28;20456;-46
2022/02/12 08:51:57;;;;;;;6.57;3.83;;;;;;;;;;5043542;28;21013;-47
2022/02/12 08:54:23;;;;;;;5.32;3.20;;;;;;;;;;5032757;28;20728;-45
2022/02/12 08:56:49;;;;;;;7.70;3.60;;;;;;;;;;5043806;28;20033;-46
2022/02/12 08:59:16;;;;;;;6.10;3.55;;;;;;;;;;5044601;28;20436;-46
2022/02/12 09:01:42;;;;;;;6.75;3.08;;;;;;;;;;5034592;28;20025;-46
2022/02/12 09:04:10;;;;;;;5.78;3.55;;;;;;;;;;5024854;28;20033;-46
2022/02/12 09:06:37;;;;;;;4.70;3.10;;;;;;;;;;5024037;28;20100;-46
2022/02/12 09:09:09;;;;;;;6.00;2.85;;;;;;;;;;5024510;28;20063;-46
2022/02/12 09:11:38;;;;;;;5.13;3.33;;;;;;;;;;5024347;28;20097;-48
2022/02/12 09:14:04;;;;;;;7.82;4.28;;;;;;;;;;5024779;28;20032;-46
2022/02/12 09:16:30;;;;;;;9.60;4.85;;;;;;;;;;5024380;28;20061;-47
2022/02/12 09:18:56;;;;;;;9.02;5.22;;;;;;;;;;5025048;28;20029;-46
2022/02/12 09:21:23;;;;;;;6.28;3.90;;;;;;;;;;5027258;28;20028;-48
2022/02/12 09:23:50;;;;;;;7.85;4.25;;;;;;;;;;5044352;28;20527;-46
2022/02/12 09:26:19;;;;;;;6.07;3.58;;;;;;;;;;5036632;28;20075;-45
2022/02/12 09:28:45;;;;;;;6.85;3.63;;;;;;;;;;5026375;28;20037;-46
2022/02/12 09:31:11;;;;;;;5.07;3.05;;;;;;;;;;5028086;28;20516;-46
2022/02/12 09:33:37;;;;;;;5.63;3.13;;;;;;;;;;5039966;28;20029;-46
2022/02/12 09:36:04;;;;;;;5.72;3.63;;;;;;;;;;5038895;28;20021;-47
2022/02/12 09:38:30;;;;;;;5.63;3.10;;;;;;;;;;5032460;28;20044;-45
2022/02/12 09:40:57;;;;;;;5.70;3.38;;;;;;;;;;5041913;28;20120;-47
2022/02/12 09:43:25;;;;;;;5.68;3.50;;;;;;;;;;5030678;28;20037;-46
2022/02/12 09:46:09;;;;;;;6.95;3.63;;;;;;;;;;5045184;28;20518;-45
2022/02/12 09:48:36;;;;;;;6.47;3.22;;;;;;;;;;5049518;28;20422;-47
2022/02/12 09:51:03;;;;;;;6.80;3.53;;;;;;;;;;5035462;28;21226;-49
2022/02/12 09:53:30;;;;;;;5.70;3.17;;;;;;;;;;5030776;28;20040;-46
2022/02/12 09:55:56;;;;;;;6.88;3.70;;;;;;;;;;5038078;28;20036;-45
2022/02/12 09:58:22;;;;;;;4.65;2.85;;;;;;;;;;5061382;28;20025;-45
2022/02/12 10:00:48;;;;;;;7.28;3.80;;;;;;;;;;5040118;28;20578;-46
2022/02/12 10:03:14;;;;;;;7.47;3.47;;;;;;;;;;5041685;28;20033;-46
2022/02/12 10:05:50;;;;;;;5.07;3.20;;;;;;;;;;5044408;28;20033;-47
2022/02/12 10:08:17;;;;;;;5.30;2.88;;;;;;;;;;5033044;28;20120;-46
2022/02/12 10:10:45;;;;;;;5.03;3.38;;;;;;;;;;5030648;28;20056;-47
2022/02/12 10:13:19;;;;;;;6.18;3.15;;;;;;;;;;5048489;28;20025;-45
2022/02/12 10:15:46;;;;;;;5.55;3.47;;;;;;;;;;5048535;28;20021;-45
2022/02/12 10:18:13;;;;;;;5.88;3.10;;;;;;;;;;5047722;28;20036;-45
2022/02/12 10:20:40;;;;;;;4.78;2.78;;;;;;;;;;5048179;28;20843;-45
2022/02/12 10:23:08;;;;;;;5.65;3.25;;;;;;;;;;5044334;28;20028;-47
2022/02/12 10:25:37;;;;;;;3.72;2.53;;;;;;;;;;5027896;28;20061;-46
2022/02/12 10:28:04;;;;;;;4.63;2.50;;;;;;;;;;5028343;28;20128;-46
2022/02/12 10:30:30;;;;;;;3.35;2.25;;;;;;;;;;5029092;28;20459;-46
2022/02/12 10:32:57;;;;;;;3.70;2.38;;;;;;;;;;5037452;28;20024;-46
2022/02/12 10:35:24;;;;;;;4.93;3.03;;;;;;;;;;5048106;28;20036;-46
2022/02/12 10:37:51;;;;;;;3.97;2.20;;;;;;;;;;5043804;28;20508;-48
2022/02/12 10:40:18;;;;;;;4.35;2.50;;;;;;;;;;5029587;28;20049;-48
2022/02/12 10:42:46;;;;;;;3.35;2.38;;;;;;;;;;5033666;28;20029;-47
2022/02/12 10:45:13;;;;;;;3.67;2.50;;;;;;;;;;5046004;28;20029;-45
2022/02/12 10:47:42;;;;;;;3.05;2.05;;;;;;;;;;5034376;28;20076;-47
2022/02/12 10:50:08;;;;;;;3.88;2.53;;;;;;;;;;5027830;28;20481;-45
2022/02/12 10:52:44;;;;;;;3.83;2.40;;;;;;;;;;5027887;28;20160;-49
2022/02/12 10:55:34;;;;;;;2.88;2.10;;;;;;;;;;5027990;28;20036;-46
2022/02/12 10:58:05;;;;;;;5.20;2.53;;;;;;;;;;5027340;28;20548;-46
2022/02/12 11:00:33;;;;;;;2.38;2.17;;;;;;;;;;5043136;28;20021;-47
2022/02/12 11:03:01;;;;;;;4.25;2.55;;;;;;;;;;5038937;28;20025;-49
2022/02/12 11:05:28;;;;;;;3.45;2.30;;;;;;;;;;5030213;28;20503;-44
2022/02/12 11:07:55;;;;;;;3.30;2.30;;;;;;;;;;5027600;28;20712;-49
2022/02/12 11:10:21;;;;;;;3.92;2.65;;;;;;;;;;5031700;28;20150;-47
2022/02/12 11:12:48;;;;;;;4.47;2.40;;;;;;;;;;5046592;28;20021;-49
2022/02/12 11:15:15;;;;;;;3.97;2.42;;;;;;;;;;5037306;28;20021;-49
2022/02/12 11:17:41;;;;;;;3.45;2.20;;;;;;;;;;5048120;28;20496;-49
2022/02/12 11:20:09;;;;;;;3.60;2.10;;;;;;;;;;5044795;28;20501;-47
2022/02/12 11:22:36;;;;;;;2.85;2.17;;;;;;;;;;5033744;28;20077;-47
2022/02/12 11:25:02;;;;;;;4.93;2.38;;;;;;;;;;5046500;28;20036;-46
2022/02/12 11:27:29;;;;;;;3.55;2.08;;;;;;;;;;5045162;28;20025;-49
2022/02/12 11:30:13;;;;;;;2.15;1.95;;;;;;;;;;5038697;28;20533;-46
2022/02/12 11:32:43;;;;;;;2.55;1.92;;;;;;;;;;5045918;28;20047;-47
2022/02/12 11:35:17;;;;;;;2.35;1.83;;;;;;;;;;5047240;28;20043;-47
2022/02/12 11:37:45;;;;;;;3.05;1.95;;;;;;;;;;5044570;28;20024;-48
2022/02/12 11:40:14;;;;;;;1.88;1.60;;;;;;;;;;5046602;28;20040;-49
2022/02/12 11:42:47;;;;;;;3.03;1.88;;;;;;;;;;5046577;28;20032;-49
2022/02/12 11:45:19;;;;;;;2.60;1.88;;;;;;;;;;5046957;28;20027;-49
2022/02/12 11:48:04;;;;;;;3.72;2.20;;;;;;;;;;5043938;28;20033;-45
2022/02/12 11:50:49;;;;;;;2.40;1.73;;;;;;;;;;5054189;28;20074;-45
2022/02/12 11:53:33;;;;;;;2.53;2.00;;;;;;;;;;5046999;28;20067;-46
2022/02/12 11:56:02;;;;;;;2.72;1.90;;;;;;;;;;5047197;28;20393;-46
2022/02/12 11:58:46;;;;;;;3.10;2.13;;;;;;;;;;5045533;28;20029;-46
2022/02/12 12:01:28;;;;;;;2.83;2.20;;;;;;;;;;5046566;28;20112;-46
2022/02/12 12:04:15;;;;;;;2.13;1.70;;;;;;;;;;5046586;28;20068;-45
2022/02/12 12:07:01;;;;;;;4.82;2.10;;;;;;;;;;5042862;28;20040;-46
2022/02/12 12:09:31;;;;;;;2.53;1.77;;;;;;;;;;5033123;28;20032;-49
2022/02/12 12:12:13;;;;;;;3.33;1.98;;;;;;;;;;5047274;28;20055;-46
2022/02/12 12:14:40;;;;;;;2.95;1.83;;;;;;;;;;5046650;28;20029;-45
2022/02/12 12:17:06;;;;;;;3.35;2.00;;;;;;;;;;5045713;28;20708;-48
2022/02/12 12:19:33;;;;;;;2.15;1.90;;;;;;;;;;5036325;28;20506;-47
2022/02/12 12:22:00;;;;;;;3.05;2.10;;;;;;;;;;5027212;28;20033;-46
2022/02/12 12:24:27;;;;;;;2.75;2.20;;;;;;;;;;5026694;28;20385;-45
2022/02/12 12:26:53;;;;;;;2.42;2.05;;;;;;;;;;5026547;28;20025;-47
2022/02/12 12:32:10;;;;;;;2.58;2.15;;;;;;;;;;5046397;28;20036;-49
2022/02/12 12:35:06;;;;;;;2.30;1.75;;;;;;;;;;5046043;28;20337;-47
2022/02/12 12:37:49;;;;;;;2.45;1.85;;;;;;;;;;5046115;28;20104;-49
2022/02/12 12:40:17;;;;;;;2.60;2.00;;;;;;;;;;5045052;28;20473;-47
2022/02/12 12:42:43;;;;;;;2.45;1.73;;;;;;;;;;5045945;28;20071;-48
2022/02/12 12:45:14;;;;;;;2.50;2.00;;;;;;;;;;5046154;28;20557;-48
2022/02/12 12:47:53;;;;;;;3.00;2.10;;;;;;;;;;5031735;28;20063;-48
2022/02/12 12:50:19;;;;;;;2.88;2.10;;;;;;;;;;5037933;28;20021;-46
2022/02/12 12:52:45;;;;;;;2.70;2.05;;;;;;;;;;5046080;28;20112;-49
2022/02/12 12:55:11;;;;;;;2.92;1.90;;;;;;;;;;5041256;28;20029;-49
2022/02/12 12:57:43;;;;;;;3.95;2.58;;;;;;;;;;5029501;28;20112;-45
2022/02/12 13:00:10;;;;;;;2.47;1.90;;;;;;;;;;5026694;28;20033;-48
2022/02/12 13:02:46;;;;;;;2.55;1.73;;;;;;;;;;5026131;28;20053;-46
2022/02/12 13:05:12;;;;;;;2.53;1.77;;;;;;;;;;5026297;28;20059;-48
2022/02/12 13:07:38;;;;;;;3.20;1.90;;;;;;;;;;5025472;28;20420;-46
2022/02/12 13:10:04;;;;;;;4.97;2.88;;;;;;;;;;5035918;28;20036;-51
2022/02/12 13:12:38;;;;;;;3.13;2.28;;;;;;;;;;5045803;28;20031;-48
2022/02/12 13:15:15;;;;;;;3.50;2.47;;;;;;;;;;5043363;28;20025;-52
2022/02/12 13:17:41;;;;;;;2.42;1.73;;;;;;;;;;5034937;28;20028;-50
2022/02/12 13:20:08;;;;;;;3.20;2.10;;;;;;;;;;5033174;28;20052;-48
2022/02/12 13:22:36;;;;;;;2.05;1.73;;;;;;;;;;5047777;28;20114;-50
2022/02/12 13:25:10;;;;;;;2.15;1.50;;;;;;;;;;5049533;28;20067;-52
2022/02/12 13:27:36;;;;;;;1.88;1.50;;;;;;;;;;5037452;28;20112;-50
2022/02/12 13:30:07;;;;;;;2.20;1.70;;;;;;;;;;5043355;28;20056;-51
2022/02/12 13:32:37;;;;;;;2.65;1.70;;;;;;;;;;5045895;28;20025;-47
2022/02/12 13:35:07;;;;;;;1.67;1.33;;;;;;;;;;5027001;28;20037;-50
2022/02/12 13:37:38;;;;;;;2.55;1.70;;;;;;;;;;5043270;28;20373;-46
2022/02/12 13:40:04;;;;;;;2.42;2.00;;;;;;;;;;5033775;28;20036;-50
2022/02/12 13:42:31;;;;;;;3.28;1.85;;;;;;;;;;5036085;28;20056;-48
2022/02/12 13:45:01;;;;;;;2.47;1.75;;;;;;;;;;5048589;28;20017;-48
2022/02/12 13:47:27;;;;;;;2.10;1.70;;;;;;;;;;5031734;28;20030;-51
2022/02/12 13:49:56;;;;;;;2.00;1.48;;;;;;;;;;5035772;28;20035;-51
2022/02/12 13:52:23;;;;;;;2.15;1.50;;;;;;;;;;5047591;28;20040;-51
2022/02/12 13:55:06;;;;;;;1.92;1.42;;;;;;;;;;5038576;28;20026;-50
2022/02/12 13:57:33;;;;;;;2.00;1.55;;;;;;;;;;5036198;28;20035;-50
2022/02/12 13:59:59;;;;;;;2.30;1.60;;;;;;;;;;5053420;28;20035;-48
2022/02/12 14:02:26;;;;;;;1.60;1.40;;;;;;;;;;5051364;28;20033;-48
2022/02/12 14:04:53;;;;;;;1.70;1.50;;;;;;;;;;5037721;28;20025;-51
2022/02/12 14:07:19;;;;;;;3.80;1.52;;;;;;;;;;5036092;28;20470;-50
2022/02/12 14:09:45;;;;;;;2.17;1.50;;;;;;;;;;5032117;28;20121;-49
2022/02/12 14:12:11;;;;;;;1.83;1.42;;;;;;;;;;5028875;28;20052;-50
2022/02/12 14:14:37;;;;;;;2.47;1.50;;;;;;;;;;5029092;28;20045;-49
2022/02/12 14:17:03;;;;;;;2.20;1.50;;;;;;;;;;5028932;28;20021;-48
2022/02/12 14:19:29;;;;;;;2.13;1.70;;;;;;;;;;5038813;28;20024;-48
2022/02/12 14:21:55;;;;;;;1.60;1.25;;;;;;;;;;5029995;28;20033;-50
2022/02/12 14:24:22;;;;;;;2.25;1.60;;;;;;;;;;5033506;28;20555;-48
2022/02/12 14:26:50;;;;;;;2.08;1.80;;;;;;;;;;5038691;28;20104;-48
2022/02/12 14:29:16;;;;;;;1.95;1.40;;;;;;;;;;5053281;28;20029;-49
2022/02/12 14:31:42;;;;;;;1.20;1.10;;;;;;;;;;5051955;28;20087;-51
2022/02/12 14:34:08;;;;;;;1.80;1.27;;;;;;;;;;5049306;28;20476;-50
2022/02/12 14:36:34;;;;;;;2.03;1.20;;;;;;;;;;5037984;28;20033;-46
2022/02/12 14:39:01;;;;;;;1.88;1.40;;;;;;;;;;5047137;28;20032;-50
2022/02/12 14:41:27;;;;;;;2.72;1.42;;;;;;;;;;5047180;28;20075;-47
2022/02/12 14:43:53;;;;;;;1.77;1.38;;;;;;;;;;5034858;28;20036;-49
2022/02/12 14:46:19;;;;;;;2.85;2.13;;;;;;;;;;5048602;28;20025;-50
2022/02/12 14:48:45;;;;;;;3.88;2.60;;;;;;;;;;5047811;28;20443;-48
2022/02/12 14:51:12;;;;;;;3.13;2.20;;;;;;;;;;5041075;28;20771;-48
2022/02/12 14:53:38;;;;;;;3.85;2.20;;;;;;;;;;5028716;28;20053;-49
2022/02/12 14:56:06;;;;;;;3.50;2.10;;;;;;;;;;5028922;28;20036;-49